createdAt,value
2023-05-19T00:06:43.937Z,78.1979
2023-05-19T00:09:47.280Z,78.6966
2023-05-19T00:10:48.853Z,79.0317
2023-05-19T00:11:50.668Z,78.3703
2023-05-19T00:12:53.857Z,78.8311
2023-05-19T00:13:52.645Z,78.8960
2023-05-19T00:14:53.837Z,80.0562
2023-05-19T00:15:55.048Z,80.1239
2023-05-19T00:16:56.297Z,78.5211
2023-05-19T00:17:58.302Z,79.0182
2023-05-19T00:18:59.609Z,78.6454
2023-05-19T00:20:01.010Z,77.9883
2023-05-19T00:21:02.224Z,78.3748
2023-05-19T00:28:12.801Z,79.8894
2023-05-19T00:29:14.369Z,79.7110
2023-05-19T00:30:16.230Z,79.9819
2023-05-19T00:32:19.615Z,79.6347
2023-05-19T00:33:20.850Z,78.5061
2023-05-19T00:34:22.341Z,78.0434
2023-05-19T00:36:24.844Z,79.0852
2023-05-19T00:37:26.277Z,80.0805
2023-05-19T00:39:29.468Z,80.6174
2023-05-19T00:40:30.908Z,81.1788
2023-05-19T00:42:33.451Z,80.1359
2023-05-19T00:43:34.673Z,79.8016
2023-05-19T00:44:36.443Z,79.7772
2023-05-19T00:45:37.855Z,79.8702
2023-05-19T00:46:40.660Z,80.8775
2023-05-19T00:47:42.737Z,81.3323
2023-05-19T00:48:42.767Z,79.9538
2023-05-19T00:49:44.691Z,81.0654
2023-05-19T00:50:46.232Z,80.8612
2023-05-19T00:51:48.359Z,81.1219
2023-05-19T00:52:49.631Z,82.2544
2023-05-19T00:53:51.524Z,80.1848
2023-05-19T00:54:53.501Z,80.9770
2023-05-19T00:56:55.854Z,79.3992
2023-05-19T00:57:57.130Z,79.8885
2023-05-19T00:58:58.635Z,79.6529
2023-05-19T01:00:00.515Z,79.0641
2023-05-19T01:01:01.760Z,78.5381
2023-05-19T01:02:03.010Z,78.9898
2023-05-19T01:03:04.306Z,78.7103
2023-05-19T01:04:06.321Z,79.6951
2023-05-19T01:05:08.575Z,80.4762
2023-05-19T01:07:11.899Z,81.3759
2023-05-19T01:08:14.257Z,80.8082
2023-05-19T01:09:15.611Z,80.6200
2023-05-19T01:10:17.054Z,80.2627
2023-05-19T01:11:18.993Z,80.0012
2023-05-19T01:12:21.127Z,81.5456
2023-05-19T01:13:22.527Z,81.5931
2023-05-19T01:14:24.766Z,82.3715
2023-05-19T01:15:26.662Z,81.9619
2023-05-19T01:16:28.841Z,81.1625
2023-05-19T01:17:30.440Z,82.3018
2023-05-19T01:19:33.657Z,81.8407
2023-05-19T01:20:37.287Z,81.9158
2023-05-19T01:26:44.877Z,82.6461
2023-05-19T01:27:47.389Z,84.3601
2023-05-19T01:28:48.798Z,84.5828
2023-05-19T01:30:52.439Z,85.4342
2023-05-19T01:31:54.579Z,83.5739
2023-05-19T01:32:57.112Z,82.8503
2023-05-19T01:33:58.345Z,81.7117
2023-05-19T01:35:00.281Z,81.8400
2023-05-19T01:36:02.204Z,83.6870
2023-05-19T01:37:03.474Z,83.7124
2023-05-19T01:38:05.619Z,82.9331
2023-05-19T01:39:06.855Z,83.5646
2023-05-19T01:40:08.075Z,82.8294
2023-05-19T01:41:09.302Z,83.6597
2023-05-19T01:42:10.612Z,82.4752
2023-05-19T01:43:11.953Z,82.3701
2023-05-19T01:46:15.559Z,81.9894
2023-05-19T01:47:16.812Z,82.8912
2023-05-19T01:48:18.064Z,82.6127
2023-05-19T01:49:19.478Z,84.5049
2023-05-19T01:51:22.362Z,84.8821
2023-05-19T01:52:24.730Z,82.3640
2023-05-19T01:54:27.189Z,82.2567
2023-05-19T01:55:28.598Z,82.4652
2023-05-19T01:56:30.004Z,83.4290
2023-05-19T01:57:31.254Z,82.6907
2023-05-19T01:58:32.671Z,82.2832
2023-05-19T01:59:34.103Z,82.1686
2023-05-19T02:00:36.562Z,83.1957
2023-05-19T02:01:38.508Z,82.8973
2023-05-19T02:02:39.964Z,81.6326
2023-05-19T02:04:43.168Z,81.2843
2023-05-19T02:05:45.904Z,81.8582
2023-05-19T02:06:47.347Z,81.9403
2023-05-19T02:07:49.534Z,82.0189
2023-05-19T02:08:51.866Z,83.0173
2023-05-19T02:09:53.134Z,81.8499
2023-05-19T02:11:56.866Z,83.0457
2023-05-19T02:12:58.841Z,83.4316
2023-05-19T02:14:00.334Z,83.8272
2023-05-19T02:15:02.313Z,83.6158
2023-05-19T02:16:03.577Z,83.3088
2023-05-19T02:17:05.250Z,83.3122
2023-05-19T02:18:06.704Z,83.0119
2023-05-19T02:19:08.584Z,83.5669
2023-05-19T02:20:10.005Z,83.8621
2023-05-19T02:21:13.203Z,82.2754
2023-05-19T02:22:12.382Z,81.9968
2023-05-19T02:23:14.054Z,82.0087
2023-05-19T02:24:15.456Z,83.0938
2023-05-19T02:25:16.900Z,83.6120
2023-05-19T02:26:18.128Z,83.2061
2023-05-19T02:27:19.564Z,82.6145
2023-05-19T02:28:21.589Z,83.3691
2023-05-19T02:30:24.739Z,85.0310
2023-05-19T02:31:27.605Z,82.7994
2023-05-19T02:32:29.865Z,82.3487
2023-05-19T02:33:31.076Z,82.0215
2023-05-19T02:34:33.121Z,83.2013
2023-05-19T02:35:35.073Z,83.0063
2023-05-19T02:36:36.849Z,82.4890
2023-05-19T02:37:38.163Z,83.1850
2023-05-19T02:38:40.887Z,82.2981
2023-05-19T02:39:42.879Z,82.3623
2023-05-19T02:40:44.189Z,83.3331
2023-05-19T02:41:45.920Z,81.7343
2023-05-19T02:42:47.312Z,81.6877
2023-05-19T02:43:48.554Z,82.0376
2023-05-19T02:44:49.826Z,81.8286
2023-05-19T02:45:51.072Z,82.3245
2023-05-19T02:46:52.378Z,82.6221
2023-05-19T02:47:53.617Z,82.2473
2023-05-19T02:48:55.507Z,82.8205
2023-05-19T02:50:10.007Z,82.3542
2023-05-19T02:50:58.013Z,82.7821
2023-05-19T02:52:00.002Z,82.6709
2023-05-19T02:53:01.324Z,82.8964
2023-05-19T02:54:03.213Z,83.1230
2023-05-19T02:55:05.098Z,82.7964
2023-05-19T02:56:07.194Z,82.0249
2023-05-19T02:57:09.023Z,82.8686
2023-05-19T02:58:10.271Z,82.9711
2023-05-19T02:59:12.246Z,82.8617
2023-05-19T03:00:14.122Z,83.0561
2023-05-19T03:01:16.092Z,83.2082
2023-05-19T03:02:17.311Z,83.0241
2023-05-19T03:03:19.276Z,83.6880
2023-05-19T03:04:21.262Z,82.8552
2023-05-19T03:05:23.407Z,82.7121
2023-05-19T03:07:26.700Z,84.3060
2023-05-19T03:08:28.758Z,85.3590
2023-05-19T03:09:30.031Z,86.2797
2023-05-19T03:10:31.696Z,86.0383
2023-05-19T03:12:34.427Z,83.4619
2023-05-19T03:14:36.981Z,83.4497
2023-05-19T03:15:39.242Z,83.1635
2023-05-19T03:16:40.591Z,82.9374
2023-05-19T03:17:42.037Z,83.6828
2023-05-19T03:18:43.418Z,84.5981
2023-05-19T03:19:44.586Z,83.4253
2023-05-19T03:20:46.333Z,84.2693
2023-05-19T03:21:48.466Z,84.5487
2023-05-19T03:22:49.868Z,84.2609
2023-05-19T03:23:51.091Z,83.5274
2023-05-19T03:24:52.293Z,83.7799
2023-05-19T03:26:55.268Z,83.7096
2023-05-19T03:27:57.682Z,83.6171
2023-05-19T03:28:58.871Z,83.5880
2023-05-19T03:30:00.794Z,83.5605
2023-05-19T03:31:02.901Z,83.8247
2023-05-19T03:32:04.676Z,83.5393
2023-05-19T03:33:06.088Z,83.8872
2023-05-19T03:34:08.086Z,84.0654
2023-05-19T03:35:09.279Z,84.0279
2023-05-19T03:36:10.506Z,84.4878
2023-05-19T03:37:12.297Z,83.8438
2023-05-19T03:38:14.198Z,83.7485
2023-05-19T03:39:15.434Z,83.9949
2023-05-19T03:40:16.633Z,84.0312
2023-05-19T03:41:18.558Z,84.3703
2023-05-19T03:42:20.440Z,83.3906
2023-05-19T03:44:23.354Z,83.5112
2023-05-19T03:45:25.151Z,83.0904
2023-05-19T03:46:27.016Z,83.5649
2023-05-19T03:47:28.495Z,83.4262
2023-05-19T03:48:30.626Z,83.4729
2023-05-19T03:49:32.645Z,83.8362
2023-05-19T03:50:34.125Z,84.4472
2023-05-19T03:51:36.037Z,84.9640
2023-05-19T03:52:37.889Z,84.9525
2023-05-19T03:53:39.124Z,85.2770
2023-05-19T03:55:42.036Z,85.8575
2023-05-19T03:56:43.927Z,85.7843
2023-05-19T03:58:46.799Z,86.3235
2023-05-19T03:59:48.643Z,86.2055
2023-05-19T04:00:49.855Z,85.6606
2023-05-19T04:01:51.776Z,85.4001
2023-05-19T04:02:53.689Z,84.8764
2023-05-19T04:03:55.014Z,84.9603
2023-05-19T04:04:57.004Z,85.5483
2023-05-19T04:05:58.213Z,85.5517
2023-05-19T04:06:59.475Z,85.0998
2023-05-19T04:08:01.409Z,85.1096
2023-05-19T04:09:03.262Z,85.2191
2023-05-19T04:10:04.496Z,85.0043
2023-05-19T04:11:05.846Z,85.5799
2023-05-19T04:12:07.661Z,85.1885
2023-05-19T04:13:08.924Z,85.5727
2023-05-19T04:15:11.212Z,87.0921
2023-05-19T04:16:12.428Z,87.2563
2023-05-19T04:17:13.633Z,86.7034
2023-05-19T04:19:16.329Z,86.5230
2023-05-19T04:20:17.607Z,86.6103
2023-05-19T04:21:19.732Z,85.3069
2023-05-19T04:23:22.727Z,85.7175
2023-05-19T04:24:24.922Z,86.1819
2023-05-19T04:25:26.105Z,86.2110
2023-05-19T04:27:29.065Z,85.5713
2023-05-19T04:28:30.265Z,85.7346
2023-05-19T04:29:31.451Z,86.3035
2023-05-19T04:30:33.432Z,86.7697
2023-05-19T04:31:35.507Z,86.6259
2023-05-19T04:32:37.473Z,86.8797
2023-05-19T04:33:38.869Z,86.9160
2023-05-19T04:34:40.935Z,85.8400
2023-05-19T04:35:42.769Z,85.7551
2023-05-19T04:36:43.980Z,85.5222
2023-05-19T04:37:45.358Z,86.3978
2023-05-19T04:38:47.153Z,85.4453
2023-05-19T04:39:48.411Z,85.0163
2023-05-19T04:40:49.577Z,85.2422
2023-05-19T04:41:50.793Z,84.7168
2023-05-19T04:42:52.042Z,84.4943
2023-05-19T04:43:53.231Z,84.5111
2023-05-19T04:44:55.092Z,84.4367
2023-05-19T04:45:56.912Z,84.3383
2023-05-19T04:46:58.767Z,85.1161
2023-05-19T04:48:00.238Z,84.2880
2023-05-19T04:49:02.403Z,84.9291
2023-05-19T04:50:04.325Z,84.9235
2023-05-19T04:51:06.278Z,84.5926
2023-05-19T04:52:07.500Z,83.8206
2023-05-19T04:53:08.783Z,84.0003
2023-05-19T04:54:10.737Z,84.6087
2023-05-19T04:55:11.926Z,84.6887
2023-05-19T04:56:13.166Z,83.0734
2023-05-19T04:57:15.066Z,82.7561
2023-05-19T04:58:16.262Z,83.5008
2023-05-19T04:59:17.451Z,82.6960
2023-05-19T05:00:18.708Z,82.5890
2023-05-19T05:01:20.576Z,82.0413
2023-05-19T05:02:22.617Z,82.6077
2023-05-19T05:03:24.665Z,82.4088
2023-05-19T05:04:25.917Z,82.3681
2023-05-19T05:05:27.818Z,82.2984
2023-05-19T05:06:29.788Z,82.3492
2023-05-19T05:07:32.232Z,82.2691
2023-05-19T05:13:39.303Z,82.4478
2023-05-19T05:14:40.541Z,82.1054
2023-05-19T05:15:41.778Z,81.1627
2023-05-19T05:16:43.064Z,81.2336
2023-05-19T05:17:44.671Z,80.9055
2023-05-19T05:18:46.489Z,79.9687
2023-05-19T05:19:48.381Z,81.0336
2023-05-19T05:20:49.597Z,80.3930
2023-05-19T05:21:52.336Z,79.8405
2023-05-19T05:24:53.971Z,80.4345
2023-05-19T05:25:55.863Z,80.7937
2023-05-19T05:26:57.133Z,81.2569
2023-05-19T05:27:59.053Z,81.4054
2023-05-19T05:31:02.377Z,81.7295
2023-05-19T05:35:06.844Z,81.8905
2023-05-19T05:36:08.033Z,81.3773
2023-05-19T05:37:09.265Z,82.2481
2023-05-19T05:38:11.416Z,81.9605
2023-05-19T05:39:12.790Z,82.7500
2023-05-19T05:40:14.776Z,81.9498
2023-05-19T05:41:16.055Z,82.2585
2023-05-19T05:42:17.383Z,82.7520
2023-05-19T05:43:18.623Z,82.3640
2023-05-19T05:44:19.866Z,82.4537
2023-05-19T05:45:21.145Z,82.8919
2023-05-19T05:46:22.503Z,82.4987
2023-05-19T05:47:23.745Z,82.4760
2023-05-19T05:48:25.007Z,82.5488
2023-05-19T05:49:26.251Z,82.3076
2023-05-19T05:50:29.086Z,82.5851
2023-05-19T05:51:30.343Z,82.2246
2023-05-19T05:52:32.167Z,82.6608
2023-05-19T05:53:33.437Z,82.8501
2023-05-19T05:54:34.695Z,82.8301
2023-05-19T05:55:36.531Z,82.2292
2023-05-19T05:56:37.808Z,81.7197
2023-05-19T05:57:39.080Z,82.1277
2023-05-19T05:58:40.967Z,82.2404
2023-05-19T05:59:42.833Z,82.3744
2023-05-19T06:00:44.735Z,82.4131
2023-05-19T06:01:46.848Z,82.1745
2023-05-19T06:02:48.904Z,82.2835
2023-05-19T06:03:50.238Z,82.5921
2023-05-19T06:05:53.621Z,82.4691
2023-05-19T06:06:54.919Z,82.1968
2023-05-19T06:07:56.198Z,81.6626
2023-05-19T06:08:57.506Z,81.5367
2023-05-19T06:10:00.012Z,81.7746
2023-05-19T06:11:01.271Z,81.6072
2023-05-19T06:13:04.755Z,82.1226
2023-05-19T06:14:06.668Z,82.2943
2023-05-19T06:15:07.933Z,82.3843
2023-05-19T06:16:10.396Z,82.1531
2023-05-19T06:17:12.754Z,82.4907
2023-05-19T06:18:14.087Z,82.3807
2023-05-19T06:19:15.401Z,82.7889
2023-05-19T06:21:18.295Z,82.4138
2023-05-19T06:22:19.535Z,82.3792
2023-05-19T06:24:21.861Z,82.4187
2023-05-19T06:25:23.148Z,82.0888
2023-05-19T06:26:24.454Z,82.1144
2023-05-19T06:27:25.691Z,82.8265
2023-05-19T06:28:28.125Z,82.4792
2023-05-19T06:29:29.399Z,82.9906
2023-05-19T06:30:31.586Z,83.1330
2023-05-19T06:31:34.022Z,83.0182
2023-05-19T06:32:35.880Z,82.8120
2023-05-19T06:33:37.162Z,82.0723
2023-05-19T06:34:39.091Z,82.7248
2023-05-19T06:35:41.038Z,83.1091
2023-05-19T06:36:42.420Z,83.1247
2023-05-19T06:37:45.331Z,82.6000
2023-05-19T06:45:52.851Z,82.6071
2023-05-19T06:46:54.146Z,82.2807
2023-05-19T06:47:55.539Z,82.6791
2023-05-19T06:50:59.768Z,82.6219
2023-05-19T06:53:03.579Z,82.2640
2023-05-19T06:54:04.950Z,82.5579
2023-05-19T06:55:06.519Z,82.8561
2023-05-19T06:56:07.869Z,83.4412
2023-05-19T06:57:33.224Z,83.1830
2023-05-19T07:01:14.600Z,82.2677
2023-05-19T07:02:16.648Z,82.0352
2023-05-19T07:03:19.126Z,82.0078
2023-05-19T07:04:20.448Z,81.7117
2023-05-19T07:05:21.682Z,82.1650
2023-05-19T07:06:23.698Z,81.8733
2023-05-19T07:07:25.513Z,81.9009
2023-05-19T07:08:26.821Z,81.9636
2023-05-19T07:09:28.100Z,81.8331
2023-05-19T07:10:30.075Z,81.5763
2023-05-19T07:11:31.373Z,81.0146
2023-05-19T07:12:33.679Z,80.8824
2023-05-19T07:13:34.945Z,80.9420
2023-05-19T07:14:36.957Z,81.2006
2023-05-19T07:15:38.191Z,81.1437
2023-05-19T07:16:39.429Z,80.5055
2023-05-19T07:18:42.648Z,80.8329
2023-05-19T07:19:44.709Z,80.7467
2023-05-19T07:20:46.015Z,81.2551
2023-05-19T07:22:49.026Z,80.8105
2023-05-19T07:23:51.001Z,80.4353
2023-05-19T07:24:52.280Z,80.1812
2023-05-19T07:25:54.269Z,80.2790
2023-05-19T07:26:56.906Z,80.6957
2023-05-19T07:27:59.243Z,80.0034
2023-05-19T07:29:12.214Z,80.3267
2023-05-19T07:30:02.199Z,79.9174
2023-05-19T07:31:03.440Z,79.1398
2023-05-19T07:32:04.737Z,79.8268
2023-05-19T07:33:06.089Z,78.9835
2023-05-19T07:34:07.353Z,79.1196
2023-05-19T07:35:08.622Z,79.8305
2023-05-19T07:36:09.876Z,79.8903
2023-05-19T07:37:11.150Z,80.2465
2023-05-19T07:38:12.472Z,80.8385
2023-05-19T07:43:18.227Z,79.0575
2023-05-19T07:44:19.525Z,79.1836
2023-05-19T07:46:21.943Z,78.1609
2023-05-19T07:47:23.768Z,79.1180
2023-05-19T07:49:26.741Z,78.0203
2023-05-19T07:50:28.808Z,77.4128
2023-05-19T07:51:30.725Z,76.3623
2023-05-19T07:52:31.986Z,77.3548
2023-05-19T07:53:34.001Z,77.6306
2023-05-19T07:54:35.353Z,77.3711
2023-05-19T07:55:36.605Z,76.8425
2023-05-19T07:56:37.872Z,77.0465
2023-05-19T07:57:39.822Z,77.0813
2023-05-19T07:58:41.761Z,77.3577
2023-05-19T07:59:42.993Z,76.8696
2023-05-19T08:00:45.208Z,76.9457
2023-05-19T08:01:47.047Z,77.1974
2023-05-19T08:02:49.451Z,77.0940
2023-05-19T08:04:52.951Z,76.5963
2023-05-19T08:05:54.936Z,77.1935
2023-05-19T08:06:56.220Z,78.1625
2023-05-19T08:07:57.504Z,78.5710
2023-05-19T08:08:59.334Z,78.5121
2023-05-19T08:10:00.605Z,79.0251
2023-05-19T08:11:01.943Z,78.8085
2023-05-19T08:12:03.230Z,79.0505
2023-05-19T08:13:07.040Z,78.7031
2023-05-19T08:16:09.281Z,80.1242
2023-05-19T08:17:11.121Z,78.3051
2023-05-19T08:18:13.021Z,79.0023
2023-05-19T08:19:14.367Z,78.6486
2023-05-19T08:20:16.285Z,77.8408
2023-05-19T08:21:18.400Z,77.1134
2023-05-19T08:22:20.325Z,78.0391
2023-05-19T08:23:22.250Z,77.7666
2023-05-19T08:24:25.313Z,78.0477
2023-05-19T08:25:24.462Z,77.5168
2023-05-19T08:26:26.324Z,79.2446
2023-05-19T08:27:31.079Z,77.7461
2023-05-19T08:40:43.462Z,78.5424
2023-05-19T08:41:44.805Z,78.2050
2023-05-19T08:45:01.321Z,77.4887
2023-05-19T08:45:48.796Z,78.1002
2023-05-19T08:46:50.129Z,79.0671
2023-05-19T08:47:51.505Z,77.6790
2023-05-19T08:48:52.830Z,77.8003
2023-05-19T08:49:54.132Z,77.5794
2023-05-19T08:50:55.413Z,76.3682
2023-05-19T08:51:56.695Z,76.0645
2023-05-19T08:52:57.995Z,75.8231
2023-05-19T08:53:59.207Z,76.2211
2023-05-19T08:55:00.490Z,76.1923
2023-05-19T08:56:01.770Z,75.9392
2023-05-19T08:57:03.152Z,74.2004
2023-05-19T08:58:04.454Z,73.6854
2023-05-19T08:59:05.735Z,74.3949
2023-05-19T09:00:07.044Z,75.2608
2023-05-19T09:01:08.390Z,73.9684
2023-05-19T09:02:09.629Z,75.5825
2023-05-19T09:03:18.105Z,73.6103
2023-05-19T09:04:12.921Z,73.5882
2023-05-19T09:05:14.284Z,75.3903
2023-05-19T09:06:15.582Z,76.6371
2023-05-19T09:07:16.911Z,76.2071
2023-05-19T09:08:18.253Z,75.8206
2023-05-19T09:09:19.796Z,77.1945
2023-05-19T09:10:21.134Z,76.1407
2023-05-19T09:11:22.584Z,74.1215
2023-05-19T09:12:23.962Z,75.8996
2023-05-19T09:14:26.494Z,76.1726
2023-05-19T09:15:27.778Z,76.9930
2023-05-19T09:16:30.184Z,75.8803
2023-05-19T09:17:31.759Z,75.9320
2023-05-19T09:18:33.106Z,75.6033
2023-05-19T09:19:34.493Z,75.4424
2023-05-19T09:20:35.835Z,76.3765
2023-05-19T09:21:37.140Z,75.7278
2023-05-19T09:22:38.454Z,76.2881
2023-05-19T09:23:39.779Z,76.4780
2023-05-19T09:25:42.211Z,77.6631
2023-05-19T09:26:43.513Z,78.0252
2023-05-19T09:27:44.805Z,77.8151
2023-05-19T09:28:46.132Z,77.5133
2023-05-19T09:29:47.423Z,77.5848
2023-05-19T09:30:48.697Z,78.5629
2023-05-19T09:31:50.033Z,77.4252
2023-05-19T09:43:02.731Z,75.4888
2023-05-19T09:44:03.973Z,74.1342
2023-05-19T09:45:05.254Z,74.6317
2023-05-19T09:46:06.782Z,74.4733
2023-05-19T09:47:08.478Z,74.8805
2023-05-19T09:48:09.712Z,75.0747
2023-05-19T09:49:11.030Z,75.4313
2023-05-19T09:50:12.272Z,74.4615
2023-05-19T09:51:13.510Z,74.3946
2023-05-19T09:52:14.777Z,73.2993
2023-05-19T09:53:16.525Z,73.4690
2023-05-19T09:54:17.809Z,73.9508
2023-05-19T09:55:19.091Z,74.5457
2023-05-19T09:56:20.377Z,74.4757
2023-05-19T09:57:21.751Z,74.3608
2023-05-19T09:58:23.037Z,74.0988
2023-05-19T09:59:24.366Z,73.2200
2023-05-19T10:00:25.657Z,73.5594
2023-05-19T10:01:26.990Z,71.9763
2023-05-19T10:02:28.512Z,73.1003
2023-05-19T10:03:29.878Z,73.3150
2023-05-19T10:04:31.465Z,74.6177
2023-05-19T10:05:32.957Z,74.4222
2023-05-19T10:06:34.511Z,73.9511
2023-05-19T10:07:35.753Z,71.7215
2023-05-19T10:08:37.047Z,72.6103
2023-05-19T10:09:38.298Z,71.2808
2023-05-19T10:10:39.657Z,70.6274
2023-05-19T10:11:40.909Z,70.7733
2023-05-19T10:12:42.230Z,70.9443
2023-05-19T10:14:45.045Z,72.3280
2023-05-19T10:15:57.067Z,72.6534
2023-05-19T10:16:48.029Z,71.5599
2023-05-19T10:17:49.475Z,72.1995
2023-05-19T10:18:50.840Z,70.9203
2023-05-19T10:19:52.128Z,71.6982
2023-05-19T10:20:53.537Z,72.8987
2023-05-19T10:21:54.870Z,73.0971
2023-05-19T10:22:56.225Z,74.1554
2023-05-19T10:23:57.519Z,73.4395
2023-05-19T10:28:02.261Z,73.6722
2023-05-19T10:48:25.660Z,70.6081
2023-05-19T10:49:26.965Z,70.7872
2023-05-19T10:50:28.372Z,72.0736
2023-05-19T10:51:29.690Z,72.7096
2023-05-19T10:52:31.014Z,73.0312
2023-05-19T10:54:33.604Z,71.7402
2023-05-19T10:55:35.083Z,73.1475
2023-05-19T10:56:36.781Z,71.5272
2023-05-19T10:57:38.182Z,70.6909
2023-05-19T10:58:39.504Z,69.8143
2023-05-19T10:59:40.889Z,70.4162
2023-05-19T11:00:42.223Z,69.9422
2023-05-19T11:01:43.762Z,69.7103
2023-05-19T11:02:45.091Z,70.5633
2023-05-19T11:03:46.455Z,69.7266
2023-05-19T11:04:50.239Z,71.8118
2023-05-19T11:05:50.336Z,70.1254
2023-05-19T11:06:51.801Z,70.5681
2023-05-19T11:07:53.198Z,71.8491
2023-05-19T11:08:54.535Z,72.0048
2023-05-19T11:09:55.836Z,72.9538
2023-05-19T11:10:57.224Z,70.7675
2023-05-19T11:11:58.528Z,71.4561
2023-05-19T11:12:59.933Z,71.0550
2023-05-19T11:15:02.367Z,72.2620
2023-05-19T11:16:03.753Z,71.9303
2023-05-19T11:17:05.155Z,70.5594
2023-05-19T11:18:06.550Z,71.0565
2023-05-19T11:19:08.017Z,70.9133
2023-05-19T11:20:09.373Z,71.7406
2023-05-19T11:21:10.702Z,71.7548
2023-05-19T11:22:12.027Z,67.2671
2023-05-19T11:23:13.383Z,70.0137
2023-05-19T11:24:14.635Z,68.4566
2023-05-19T11:25:15.957Z,70.9499
2023-05-19T11:26:17.256Z,69.7350
2023-05-19T11:27:18.573Z,70.7975
2023-05-19T11:28:20.139Z,70.3645
2023-05-19T11:29:21.532Z,71.6729
2023-05-19T11:30:22.831Z,72.1435
2023-05-19T11:31:24.147Z,71.9633
2023-05-19T11:32:25.522Z,71.8645
2023-05-19T11:33:26.835Z,71.9634
2023-05-19T11:34:28.155Z,72.1716
2023-05-19T11:36:30.667Z,70.2294
2023-05-19T11:37:31.956Z,69.6235
2023-05-19T11:38:33.263Z,69.5248
2023-05-19T11:39:34.596Z,68.2709
2023-05-19T11:40:35.898Z,68.4457
2023-05-19T11:41:37.277Z,69.4783
2023-05-19T11:42:38.580Z,66.5631
2023-05-19T11:43:39.912Z,64.9715
2023-05-19T11:44:41.300Z,65.5267
2023-05-19T11:46:43.877Z,66.9608
2023-05-19T11:48:00.284Z,66.4570
2023-05-19T11:48:46.966Z,66.5463
2023-05-19T11:50:14.740Z,67.0707
2023-05-19T11:51:16.125Z,67.9952
2023-05-19T11:52:17.519Z,67.6448
2023-05-19T11:53:18.995Z,66.2234
2023-05-19T11:54:20.557Z,66.0870
2023-05-19T11:55:21.956Z,64.6285
2023-05-19T11:56:23.355Z,66.1939
2023-05-19T11:57:24.726Z,65.7598
2023-05-19T11:58:26.072Z,65.3819
2023-05-19T11:59:27.480Z,65.6637
2023-05-19T12:00:28.916Z,65.6100
2023-05-19T12:01:30.285Z,64.0104
2023-05-19T12:02:31.874Z,64.1191
2023-05-19T12:03:33.407Z,64.0863
2023-05-19T12:04:34.864Z,65.5574
2023-05-19T12:05:39.915Z,62.3357
2023-05-19T12:06:38.125Z,64.7986
2023-05-19T12:07:39.636Z,64.3341
2023-05-19T12:08:40.983Z,64.7624
2023-05-19T12:09:42.387Z,64.4172
2023-05-19T12:10:43.802Z,65.4398
2023-05-19T12:11:45.150Z,66.1776
2023-05-19T12:12:46.557Z,65.4253
2023-05-19T12:15:50.453Z,66.6275
2023-05-19T12:16:52.042Z,66.4210
2023-05-19T12:17:53.551Z,66.9460
2023-05-19T12:18:54.951Z,66.0912
2023-05-19T12:19:56.376Z,65.6708
2023-05-19T12:20:58.032Z,67.1206
2023-05-19T12:21:59.444Z,67.9241
2023-05-19T12:23:01.036Z,66.4931
2023-05-19T12:24:02.678Z,64.9220
2023-05-19T12:26:05.281Z,66.1559
2023-05-19T12:27:06.720Z,65.0323
2023-05-19T12:28:08.190Z,64.5095
2023-05-19T12:29:09.704Z,65.3184
2023-05-19T12:30:11.284Z,66.4564
2023-05-19T12:31:12.750Z,63.7951
2023-05-19T12:32:14.146Z,64.9569
2023-05-19T12:33:15.637Z,64.2007
2023-05-19T12:34:17.035Z,64.7460
2023-05-19T12:35:18.553Z,63.6728
2023-05-19T12:37:21.221Z,64.5674
2023-05-19T12:55:43.824Z,67.5661
2023-05-19T12:56:45.186Z,65.5846
2023-05-19T12:57:47.982Z,67.6499
2023-05-19T12:58:47.276Z,67.4482
2023-05-19T12:59:48.601Z,68.0232
2023-05-19T13:00:50.180Z,67.5051
2023-05-19T13:01:51.765Z,65.7931
2023-05-19T13:03:54.478Z,66.1787
2023-05-19T13:04:56.115Z,65.6530
2023-05-19T13:05:57.485Z,65.8226
2023-05-19T13:06:58.958Z,65.3747
2023-05-19T13:08:00.362Z,64.7273
2023-05-19T13:09:01.695Z,64.3857
2023-05-19T13:10:03.081Z,64.8923
2023-05-19T13:11:04.440Z,63.9954
2023-05-19T13:12:05.847Z,65.5087
2023-05-19T13:14:08.374Z,65.8519
2023-05-19T13:15:09.833Z,66.6265
2023-05-19T13:16:11.273Z,67.5209
2023-05-19T13:19:24.986Z,69.0702
2023-05-19T13:20:17.170Z,70.0093
2023-05-19T13:21:18.521Z,70.5184
2023-05-19T13:22:19.853Z,71.1690
2023-05-19T13:23:21.258Z,70.7068
2023-05-19T13:24:22.642Z,70.2005
2023-05-19T13:25:24.026Z,70.9593
2023-05-19T13:26:25.425Z,69.6519
2023-05-19T13:27:26.806Z,68.2535
2023-05-19T13:28:28.221Z,68.6496
2023-05-19T13:29:29.604Z,69.0161
2023-05-19T13:30:31.050Z,68.5301
2023-05-19T13:31:32.635Z,68.1740
2023-05-19T13:32:34.070Z,67.7856
2023-05-19T13:33:35.573Z,68.6363
2023-05-19T13:35:38.432Z,69.8396
2023-05-19T13:36:40.045Z,69.0779
2023-05-19T13:37:41.455Z,69.9424
2023-05-19T13:38:43.006Z,71.3523
2023-05-19T13:39:44.314Z,70.5563
2023-05-19T13:40:45.724Z,69.7587
2023-05-19T13:41:47.189Z,69.8255
2023-05-19T13:42:48.617Z,70.3320
2023-05-19T13:43:49.972Z,70.6857
2023-05-19T13:44:51.529Z,69.5793
2023-05-19T13:45:52.936Z,68.5002
2023-05-19T13:47:55.685Z,69.9997
2023-05-19T13:48:57.046Z,69.3708
2023-05-19T13:49:58.478Z,69.6754
2023-05-19T13:50:59.891Z,68.7531
2023-05-19T13:52:02.167Z,68.3950
2023-05-19T13:53:03.542Z,67.9420
2023-05-19T13:54:05.301Z,69.0306
2023-05-19T13:55:06.695Z,68.2491
2023-05-19T13:56:08.255Z,67.7415
2023-05-19T13:57:09.606Z,68.2012
2023-05-19T13:58:11.048Z,69.1134
2023-05-19T13:59:12.581Z,68.4007
2023-05-19T14:01:15.245Z,69.9824
2023-05-19T14:02:16.676Z,69.7481
2023-05-19T14:03:18.126Z,70.1914
2023-05-19T14:04:19.697Z,69.9853
2023-05-19T14:05:21.522Z,70.9624
2023-05-19T14:06:22.894Z,70.5884
2023-05-19T14:07:24.217Z,70.8600
2023-05-19T14:08:25.650Z,70.5694
2023-05-19T14:09:28.080Z,71.0099
2023-05-19T14:10:27.875Z,70.8463
2023-05-19T14:11:29.219Z,71.8427
2023-05-19T14:12:38.159Z,72.4460
2023-05-19T14:13:36.123Z,73.0123
2023-05-19T14:14:34.543Z,71.2939
2023-05-19T14:15:35.978Z,72.9489
2023-05-19T14:16:38.286Z,71.4174
2023-05-19T14:17:39.889Z,73.6538
2023-05-19T14:18:41.344Z,72.4875
2023-05-19T14:19:42.783Z,72.4613
2023-05-19T14:21:45.381Z,71.6039
2023-05-19T14:22:46.793Z,70.5702
2023-05-19T14:23:48.166Z,71.1810
2023-05-19T14:24:49.491Z,69.7635
2023-05-19T14:25:50.868Z,70.9633
2023-05-19T14:26:52.227Z,69.5126
2023-05-19T14:27:53.655Z,70.5987
2023-05-19T14:28:55.003Z,71.3614
2023-05-19T14:29:56.703Z,73.6182
2023-05-19T14:31:59.865Z,71.8318
2023-05-19T14:33:01.364Z,72.2480
2023-05-19T14:34:02.807Z,71.3552
2023-05-19T14:35:04.178Z,69.9038
2023-05-19T14:36:05.604Z,69.9007
2023-05-19T14:37:06.993Z,70.1247
2023-05-19T14:38:08.384Z,70.4668
2023-05-19T14:39:09.759Z,70.8227
2023-05-19T14:41:12.383Z,70.7255
2023-05-19T14:42:13.789Z,70.1191
2023-05-19T14:43:15.240Z,69.4657
2023-05-19T14:44:16.550Z,69.1852
2023-05-19T14:45:18.897Z,70.2411
2023-05-19T14:46:20.372Z,70.1388
2023-05-19T14:47:21.762Z,70.1101
2023-05-19T14:48:23.162Z,69.8184
2023-05-19T14:49:24.593Z,70.4324
2023-05-19T14:50:27.849Z,69.2733
2023-05-19T14:51:27.776Z,69.1817
2023-05-19T14:52:29.204Z,70.1479
2023-05-19T14:53:30.669Z,69.7558
2023-05-19T14:54:32.053Z,68.4548
2023-05-19T14:55:33.463Z,69.3817
2023-05-19T14:56:34.906Z,68.7293
2023-05-19T14:57:36.353Z,69.4351
2023-05-19T14:58:37.794Z,69.5453
2023-05-19T14:59:39.177Z,69.4792
2023-05-19T15:00:40.630Z,68.9213
2023-05-19T15:01:42.037Z,69.8555
2023-05-19T15:02:43.532Z,69.7545
2023-05-19T15:03:44.990Z,69.9699
2023-05-19T15:06:58.234Z,69.2357
2023-05-19T15:07:50.802Z,68.7033
2023-05-19T15:08:52.204Z,68.8074
2023-05-19T15:09:53.635Z,69.2047
2023-05-19T15:10:55.053Z,70.4311
2023-05-19T15:11:56.411Z,69.0505
2023-05-19T15:12:58.091Z,68.5694
2023-05-19T15:16:12.365Z,69.0553
2023-05-19T15:17:03.617Z,70.3119
2023-05-19T15:18:05.287Z,71.2598
2023-05-19T15:19:06.697Z,70.5649
2023-05-19T15:20:08.140Z,69.6592
2023-05-19T15:21:09.586Z,70.8202